This is the latest recevied weather packets stored in our database for station/object DC2MP. If no packets are shown the sender has not sent any weather packets the latest 10 day(s).
| Time | Temp. | Humidity | Pressure | Rain* | Wind** | Luminosity | Snow |
|---|---|---|---|---|---|---|---|
| 1777992543 | 17.78° C | 57% | 1008 hPa | 0 mm | - | - | - |
| 1777988943 | 17.78° C | 58% | 1008.4 hPa | 0 mm | - | - | - |
| 1777985343 | 16.67° C | 60% | 1008.8 hPa | 0 mm | - | - | - |
| 1777981743 | 16.67° C | 58% | 1008.8 hPa | 0 mm | - | - | - |
| 1777978143 | 16.67° C | 52% | 1009.4 hPa | 0 mm | - | - | - |
| 1777974544 | 16.11° C | 48% | 1009.3 hPa | 0 mm | - | - | - |
| 1777970943 | 14.44° C | 54% | 1009.5 hPa | 0 mm | - | - | - |
| 1777967343 | 13.89° C | 54% | 1010.1 hPa | 0 mm | - | - | - |
| 1777963744 | 12.78° C | 54% | 1010.4 hPa | 0 mm | - | - | - |
| 1777960143 | 7.22° C | 78% | 1011 hPa | 0 mm | - | - | - |
| 1777956543 | 5.56° C | 81% | 1011 hPa | 0 mm | - | - | - |
| 1777952943 | 5.56° C | 81% | 1011.1 hPa | 0 mm | - | - | - |
| 1777949344 | 5.56° C | 78% | 1011.5 hPa | 0 mm | - | - | - |
| 1777945743 | 7.22° C | 76% | 1012.1 hPa | 0 mm | - | - | - |
| 1777942143 | 7.22° C | 74% | 1012.6 hPa | 0 mm | - | - | - |
| 1777938543 | 8.89° C | 70% | 1013 hPa | 0 mm | - | - | - |
| 1777934943 | 10.56° C | 65% | 1013.3 hPa | 0 mm | - | - | - |
| 1777931343 | 12.22° C | 58% | 1013.4 hPa | 0 mm | - | - | - |
| 1777927743 | 14.44° C | 51% | 1013.5 hPa | 0 mm | - | - | - |
| 1777924143 | 16.67° C | 39% | 1013.2 hPa | 0 mm | - | - | - |
| 1777920543 | 18.33° C | 35% | 1013.5 hPa | 0 mm | - | - | - |
| 1777916943 | 19.44° C | 33% | 1013.4 hPa | 0 mm | - | - | - |
| 1777913343 | 20° C | 44% | 1013.1 hPa | 0 mm | - | - | - |
| 1777909743 | 20.56° C | 41% | 1012.6 hPa | 0 mm | - | - | - |
| 1777906143 | 21.67° C | 37% | 1012.3 hPa | 0 mm | - | - | - |
* Rain latest hour (hover to see other rain measurements)
** Current wind speed in m/s (hover to see current wind gust speed)